createdAt,value
2022-11-20T00:00:38.688Z,90.46
2022-11-20T00:01:53.778Z,90.42
2022-11-20T00:02:57.275Z,90.71
2022-11-20T00:04:00.575Z,90.85
2022-11-20T00:05:03.917Z,90.81
2022-11-20T00:06:11.815Z,90.87
2022-11-20T00:07:15.191Z,90.77
2022-11-20T00:08:18.705Z,90.89
2022-11-20T00:09:22.212Z,90.78
2022-11-20T00:10:25.516Z,90.79
2022-11-20T00:11:30.065Z,90.59
2022-11-20T00:12:33.728Z,90.89
2022-11-20T00:13:37.112Z,90.75
2022-11-20T00:14:40.351Z,90.82
2022-11-20T00:15:43.643Z,90.89
2022-11-20T00:16:47.483Z,90.94
2022-11-20T00:17:50.750Z,90.97
2022-11-20T00:18:54.466Z,90.95
2022-11-20T00:19:57.712Z,90.98
2022-11-20T00:21:08.102Z,90.84
2022-11-20T00:22:11.245Z,90.96
2022-11-20T00:23:14.642Z,90.88
2022-11-20T00:24:18.135Z,90.83
2022-11-20T00:25:21.285Z,90.84
2022-11-20T00:26:28.041Z,90.94
2022-11-20T00:27:31.236Z,90.80
2022-11-20T00:28:35.246Z,90.56
2022-11-20T00:29:38.612Z,90.71
2022-11-20T00:30:44.645Z,90.86
2022-11-20T00:31:47.796Z,90.75
2022-11-20T00:32:51.518Z,90.69
2022-11-20T00:33:54.691Z,90.73
2022-11-20T00:34:57.925Z,90.81
2022-11-20T00:36:05.775Z,90.97
2022-11-20T00:37:08.936Z,90.86
2022-11-20T00:38:12.215Z,90.80
2022-11-20T00:39:15.447Z,90.72
2022-11-20T00:40:18.764Z,90.85
2022-11-20T00:41:22.551Z,90.90
2022-11-20T00:42:25.786Z,91.08
2022-11-20T00:43:29.296Z,91.03
2022-11-20T00:44:32.503Z,90.94
2022-11-20T00:45:35.615Z,90.95
2022-11-20T00:46:39.065Z,90.87
2022-11-20T00:47:42.345Z,90.84
2022-11-20T00:48:45.974Z,90.74
2022-11-20T00:49:49.346Z,90.94
2022-11-20T00:50:52.590Z,91.08
2022-11-20T00:51:55.785Z,90.88
2022-11-20T00:53:01.275Z,90.88
2022-11-20T00:54:04.580Z,90.99
2022-11-20T00:55:08.127Z,91.13
2022-11-20T00:56:12.835Z,90.94
2022-11-20T00:57:16.284Z,90.90
2022-11-20T00:58:19.429Z,91.02
2022-11-20T00:59:22.690Z,91.03
2022-11-20T01:00:26.280Z,90.94
2022-11-20T01:01:32.856Z,91.02
2022-11-20T01:02:36.313Z,90.94
2022-11-20T01:03:40.925Z,91.01
2022-11-20T01:04:44.151Z,91.13
2022-11-20T01:05:47.291Z,91.07
2022-11-20T01:06:50.433Z,90.99
2022-11-20T01:07:53.604Z,90.86
2022-11-20T01:08:58.149Z,90.56
2022-11-20T01:10:01.227Z,90.71
2022-11-20T01:11:11.870Z,90.62
2022-11-20T01:12:15.161Z,90.56
2022-11-20T01:13:36.861Z,90.70
2022-11-20T01:14:40.140Z,90.62
2022-11-20T01:15:43.401Z,90.62
2022-11-20T01:16:48.563Z,90.77
2022-11-20T01:17:51.777Z,90.84
2022-11-20T01:18:56.035Z,90.69
2022-11-20T01:19:59.391Z,90.75
2022-11-20T01:21:09.899Z,90.68
2022-11-20T01:22:13.040Z,90.52
2022-11-20T01:23:16.415Z,90.42
2022-11-20T01:24:20.894Z,90.90
2022-11-20T01:25:24.613Z,90.64
2022-11-20T01:26:29.020Z,90.64
2022-11-20T01:27:32.475Z,90.98
2022-11-20T01:28:35.761Z,90.51
2022-11-20T01:29:38.860Z,90.83
2022-11-20T01:30:42.040Z,90.73
2022-11-20T01:31:45.718Z,90.68
2022-11-20T01:32:48.886Z,90.62
2022-11-20T01:33:54.374Z,90.66
2022-11-20T01:34:57.507Z,90.64
2022-11-20T01:36:07.525Z,90.50
2022-11-20T01:37:11.115Z,90.56
2022-11-20T01:38:14.554Z,90.47
2022-11-20T01:39:20.037Z,90.36
2022-11-20T01:40:23.452Z,90.46
2022-11-20T01:41:46.031Z,90.58
2022-11-20T01:43:11.881Z,90.48
2022-11-20T01:44:16.268Z,90.48
2022-11-20T01:45:40.215Z,90.45
2022-11-20T01:46:58.550Z,90.63
2022-11-20T01:48:01.901Z,90.78
2022-11-20T01:49:10.878Z,90.49
2022-11-20T01:50:23.592Z,90.50
2022-11-20T01:51:26.877Z,90.54
2022-11-20T01:52:36.649Z,90.50
2022-11-20T01:53:40.220Z,90.34
2022-11-20T01:54:47.096Z,90.54
2022-11-20T01:55:52.172Z,90.58
2022-11-20T01:56:59.423Z,90.59
2022-11-20T01:58:03.873Z,90.58
2022-11-20T01:59:09.443Z,90.53
2022-11-20T02:00:14.550Z,90.64
2022-11-20T02:01:18.025Z,90.46
2022-11-20T02:02:22.320Z,90.72
2022-11-20T02:03:25.926Z,90.64
2022-11-20T02:04:29.260Z,90.47
2022-11-20T02:05:41.383Z,90.61
2022-11-20T02:06:50.897Z,90.52
2022-11-20T02:07:55.576Z,90.59
2022-11-20T02:08:58.799Z,90.78
2022-11-20T02:10:02.526Z,90.80
2022-11-20T02:11:07.303Z,90.68
2022-11-20T02:12:30.602Z,90.51
2022-11-20T02:13:46.818Z,90.55
2022-11-20T02:14:50.170Z,90.59
2022-11-20T02:15:53.611Z,90.41
2022-11-20T02:16:56.961Z,90.44
2022-11-20T02:18:00.352Z,90.54
2022-11-20T02:19:05.218Z,90.51
2022-11-20T02:20:09.813Z,90.37
2022-11-20T02:21:20.686Z,90.55
2022-11-20T02:22:30.369Z,90.69
2022-11-20T02:23:40.814Z,90.75
2022-11-20T02:24:45.492Z,90.72
2022-11-20T02:25:49.035Z,90.72
2022-11-20T02:26:52.225Z,90.62
2022-11-20T02:27:55.826Z,90.70
2022-11-20T02:29:00.461Z,90.79
2022-11-20T02:30:05.661Z,90.65
2022-11-20T02:31:08.970Z,90.97
2022-11-20T02:32:25.116Z,90.71
2022-11-20T02:33:28.347Z,90.77
2022-11-20T02:34:31.755Z,90.89
2022-11-20T02:35:34.807Z,90.95
2022-11-20T02:36:39.725Z,91.24
2022-11-20T02:37:42.869Z,90.92
2022-11-20T02:38:46.484Z,91.51
2022-11-20T02:39:50.785Z,91.00
2022-11-20T02:40:55.693Z,91.21
2022-11-20T02:42:02.286Z,91.75
2022-11-20T02:43:05.325Z,91.55
2022-11-20T02:44:10.964Z,91.85
2022-11-20T02:45:14.415Z,91.77
2022-11-20T02:46:17.718Z,91.94
2022-11-20T02:47:21.010Z,91.98
2022-11-20T02:48:25.354Z,92.06
2022-11-20T02:49:28.815Z,92.08
2022-11-20T02:50:32.116Z,92.37
2022-11-20T02:51:37.702Z,92.12
2022-11-20T02:52:40.946Z,91.98
2022-11-20T02:53:44.130Z,91.97
2022-11-20T02:54:47.587Z,92.19
2022-11-20T02:55:50.771Z,92.19
2022-11-20T02:56:54.168Z,92.08
2022-11-20T02:57:57.615Z,91.82
2022-11-20T02:59:00.907Z,92.00
2022-11-20T03:00:05.535Z,92.25
2022-11-20T03:01:08.824Z,92.15
2022-11-20T03:02:12.086Z,91.89
2022-11-20T03:03:15.422Z,92.10
2022-11-20T03:04:18.701Z,92.05
2022-11-20T03:05:22.206Z,92.12
2022-11-20T03:06:27.651Z,91.96
2022-11-20T03:07:30.927Z,91.84
2022-11-20T03:08:34.273Z,91.88
2022-11-20T03:09:37.583Z,92.07
2022-11-20T03:10:40.829Z,92.06
2022-11-20T03:11:55.650Z,91.88
2022-11-20T03:12:58.936Z,91.91
2022-11-20T03:14:06.477Z,91.64
2022-11-20T03:15:10.036Z,91.85
2022-11-20T03:16:18.326Z,91.99
2022-11-20T03:17:21.559Z,91.73
2022-11-20T03:18:24.732Z,92.07
2022-11-20T03:19:30.300Z,91.81
2022-11-20T03:20:33.990Z,91.89
2022-11-20T03:21:37.286Z,92.07
2022-11-20T03:22:40.482Z,91.92
2022-11-20T03:23:43.684Z,91.97
2022-11-20T03:24:47.343Z,91.99
2022-11-20T03:25:50.567Z,91.90
2022-11-20T03:26:53.758Z,92.06
2022-11-20T03:27:57.132Z,92.10
2022-11-20T03:29:01.529Z,92.03
2022-11-20T03:30:06.799Z,92.20
2022-11-20T03:31:14.455Z,92.05
2022-11-20T03:32:17.796Z,92.11
2022-11-20T03:33:20.956Z,92.14
2022-11-20T03:34:24.533Z,92.06
2022-11-20T03:35:30.451Z,92.17
2022-11-20T03:36:33.931Z,92.40
2022-11-20T03:37:37.750Z,92.11
2022-11-20T03:38:41.657Z,92.25
2022-11-20T03:39:44.777Z,92.20
2022-11-20T03:40:48.014Z,91.96
2022-11-20T03:41:51.274Z,92.14
2022-11-20T03:42:54.401Z,92.36
2022-11-20T03:43:59.231Z,91.94
2022-11-20T03:45:05.466Z,91.93
2022-11-20T03:46:08.910Z,92.37
2022-11-20T03:47:12.164Z,92.12
2022-11-20T03:48:15.491Z,92.18
2022-11-20T03:49:18.771Z,92.26
2022-11-20T03:50:22.081Z,92.18
2022-11-20T03:51:26.505Z,92.03
2022-11-20T03:52:30.092Z,92.12
2022-11-20T03:53:33.300Z,92.22
2022-11-20T03:54:36.673Z,91.95
2022-11-20T03:55:39.764Z,92.06
2022-11-20T03:56:42.860Z,92.28
2022-11-20T03:57:45.985Z,92.29
2022-11-20T03:58:53.773Z,92.21
2022-11-20T03:59:56.921Z,92.41
2022-11-20T04:01:05.292Z,92.44
2022-11-20T04:02:08.460Z,92.11
2022-11-20T04:03:11.808Z,92.28
2022-11-20T04:04:15.179Z,92.12
2022-11-20T04:05:18.481Z,92.41
2022-11-20T04:06:22.520Z,92.23
2022-11-20T04:07:25.649Z,92.08
2022-11-20T04:08:29.570Z,92.08
2022-11-20T04:09:32.679Z,92.17
2022-11-20T04:10:35.992Z,92.16
2022-11-20T04:11:41.332Z,92.08
2022-11-20T04:12:44.475Z,91.97
2022-11-20T04:13:48.725Z,92.03
2022-11-20T04:14:52.051Z,91.90
2022-11-20T04:15:58.251Z,92.03
2022-11-20T04:17:01.418Z,92.13
2022-11-20T04:18:04.846Z,91.83
2022-11-20T04:19:11.208Z,91.82
2022-11-20T04:20:17.125Z,91.72
2022-11-20T04:21:20.811Z,91.81
2022-11-20T04:22:24.541Z,91.93
2022-11-20T04:23:28.957Z,91.83
2022-11-20T04:24:32.586Z,92.01
2022-11-20T04:25:35.721Z,91.84
2022-11-20T04:26:39.321Z,91.95
2022-11-20T04:27:42.652Z,92.02
2022-11-20T04:28:45.843Z,92.02
2022-11-20T04:29:49.020Z,91.92
2022-11-20T04:30:54.915Z,91.88
2022-11-20T04:31:57.973Z,91.74
2022-11-20T04:33:03.036Z,91.95
2022-11-20T04:34:07.539Z,92.02
2022-11-20T04:35:10.842Z,92.05
2022-11-20T04:36:22.040Z,91.90
2022-11-20T04:37:25.225Z,91.53
2022-11-20T04:38:28.556Z,91.77
2022-11-20T04:39:31.757Z,91.86
2022-11-20T04:40:34.886Z,91.61
2022-11-20T04:41:38.166Z,91.60
2022-11-20T04:42:41.341Z,91.70
2022-11-20T04:43:47.860Z,91.61
2022-11-20T04:44:51.322Z,91.35
2022-11-20T04:45:54.957Z,91.48
2022-11-20T04:46:58.131Z,91.36
2022-11-20T04:48:01.385Z,91.40
2022-11-20T04:49:05.043Z,91.71
2022-11-20T04:50:08.474Z,91.59
2022-11-20T04:51:11.725Z,91.61
2022-11-20T04:52:17.068Z,91.71
2022-11-20T04:53:20.636Z,91.96
2022-11-20T04:54:23.796Z,91.88
2022-11-20T04:55:26.981Z,92.05
2022-11-20T04:56:30.206Z,92.08
2022-11-20T04:57:33.441Z,91.75
2022-11-20T04:59:56.166Z,91.83
2022-11-20T05:01:10.767Z,91.91
2022-11-20T05:02:14.060Z,91.81
2022-11-20T05:03:20.216Z,91.97
2022-11-20T05:04:23.445Z,91.98
2022-11-20T05:05:27.001Z,91.97
2022-11-20T05:06:30.475Z,92.03
2022-11-20T05:07:33.972Z,92.20
2022-11-20T05:08:37.499Z,92.08
2022-11-20T05:09:40.772Z,92.12
2022-11-20T05:10:44.225Z,92.06
2022-11-20T05:11:51.328Z,92.22
2022-11-20T05:12:54.870Z,92.01
2022-11-20T05:13:59.581Z,92.05
2022-11-20T05:15:02.837Z,92.02
2022-11-20T05:16:13.390Z,91.97
2022-11-20T05:17:16.813Z,91.92
2022-11-20T05:18:22.948Z,92.06
2022-11-20T05:19:26.276Z,91.92
2022-11-20T05:20:29.730Z,91.79
2022-11-20T05:21:33.666Z,91.94
2022-11-20T05:22:36.948Z,92.00
2022-11-20T05:23:40.706Z,91.93
2022-11-20T05:24:43.976Z,91.70
2022-11-20T05:25:47.105Z,91.71
2022-11-20T05:26:53.188Z,91.82
2022-11-20T05:27:56.791Z,91.44
2022-11-20T05:29:00.341Z,91.56
2022-11-20T05:30:05.139Z,91.67
2022-11-20T05:31:12.792Z,91.63
2022-11-20T05:32:16.211Z,91.52
2022-11-20T05:33:19.815Z,91.47
2022-11-20T05:34:23.101Z,91.61
2022-11-20T05:35:29.709Z,91.62
2022-11-20T05:36:33.257Z,91.56
2022-11-20T05:37:36.697Z,91.60
2022-11-20T05:38:40.165Z,91.73
2022-11-20T05:39:44.008Z,91.61
2022-11-20T05:40:47.396Z,91.49
2022-11-20T05:42:10.550Z,91.41
2022-11-20T05:43:13.910Z,91.64
2022-11-20T05:44:17.337Z,91.60
2022-11-20T05:45:20.712Z,91.58
2022-11-20T05:46:28.141Z,91.34
2022-11-20T05:47:34.015Z,91.28
2022-11-20T05:48:39.519Z,91.43
2022-11-20T05:49:43.108Z,91.33
2022-11-20T05:50:46.521Z,91.40
2022-11-20T05:51:49.709Z,91.32
2022-11-20T05:52:52.965Z,91.04
2022-11-20T05:53:59.746Z,91.13
2022-11-20T05:55:03.142Z,91.35
2022-11-20T05:56:08.215Z,91.33
2022-11-20T05:57:11.739Z,91.23
2022-11-20T05:58:18.136Z,91.12
2022-11-20T05:59:21.948Z,91.40
2022-11-20T06:00:25.371Z,91.67
2022-11-20T06:01:33.811Z,91.43
2022-11-20T06:02:37.390Z,91.67
2022-11-20T06:03:44.810Z,91.51
2022-11-20T06:04:48.265Z,91.41
2022-11-20T06:05:51.399Z,91.30
2022-11-20T06:06:54.743Z,91.60
2022-11-20T06:08:00.219Z,91.19
2022-11-20T06:09:03.487Z,91.26
2022-11-20T06:10:06.731Z,91.07
2022-11-20T06:11:11.051Z,91.11
2022-11-20T06:12:14.308Z,90.95
2022-11-20T06:13:19.540Z,90.89
2022-11-20T06:14:22.787Z,91.16
2022-11-20T06:15:26.152Z,91.20
2022-11-20T06:16:29.342Z,91.15
2022-11-20T06:17:32.448Z,91.26
2022-11-20T06:18:35.894Z,91.21
2022-11-20T06:19:39.132Z,91.00
2022-11-20T06:20:42.378Z,91.28
2022-11-20T06:21:45.489Z,91.11
2022-11-20T06:22:51.316Z,91.34
2022-11-20T06:23:55.148Z,91.17
2022-11-20T06:24:58.246Z,91.34
2022-11-20T06:26:06.278Z,91.17
2022-11-20T06:27:09.436Z,91.24
2022-11-20T06:28:12.591Z,91.47
2022-11-20T06:29:15.906Z,91.39
2022-11-20T06:30:19.176Z,91.53
2022-11-20T06:31:25.228Z,91.45
2022-11-20T06:32:28.327Z,91.68
2022-11-20T06:33:31.500Z,91.71
2022-11-20T06:34:34.689Z,91.43
2022-11-20T06:35:37.930Z,91.41
2022-11-20T06:36:40.969Z,91.45
2022-11-20T06:37:46.842Z,91.28
2022-11-20T06:38:50.129Z,91.42
2022-11-20T06:39:53.275Z,91.46
2022-11-20T06:40:56.750Z,91.14
2022-11-20T06:41:59.936Z,91.27
2022-11-20T06:43:03.656Z,91.44
2022-11-20T06:44:06.861Z,91.33
2022-11-20T06:45:10.738Z,91.53
2022-11-20T06:46:14.853Z,91.48
2022-11-20T06:47:18.705Z,91.34
2022-11-20T06:48:22.515Z,91.84
2022-11-20T06:49:26.742Z,91.59
2022-11-20T06:50:30.360Z,91.65
2022-11-20T06:51:33.750Z,91.40
2022-11-20T06:52:40.848Z,91.55
2022-11-20T06:53:46.890Z,91.53
2022-11-20T06:54:50.219Z,91.40
2022-11-20T06:55:53.974Z,91.53
2022-11-20T06:56:58.650Z,91.58
2022-11-20T06:58:01.832Z,91.59
2022-11-20T06:59:06.092Z,91.57
2022-11-20T07:00:09.782Z,91.32
2022-11-20T07:01:14.323Z,91.33
2022-11-20T07:02:17.776Z,91.07
2022-11-20T07:03:21.127Z,91.48
2022-11-20T07:04:24.342Z,91.44
2022-11-20T07:05:30.028Z,91.23
2022-11-20T07:06:33.334Z,91.20
2022-11-20T07:07:36.602Z,91.27
2022-11-20T07:08:39.914Z,91.30
2022-11-20T07:09:43.182Z,91.27
2022-11-20T07:10:46.559Z,91.28
2022-11-20T07:11:50.060Z,91.10
2022-11-20T07:12:53.961Z,91.12
2022-11-20T07:13:57.929Z,91.26
2022-11-20T07:15:01.269Z,91.21
2022-11-20T07:16:17.399Z,90.97
2022-11-20T07:17:41.095Z,90.95
2022-11-20T07:19:12.955Z,90.62
2022-11-20T07:20:16.750Z,90.98
2022-11-20T07:21:20.102Z,90.98
2022-11-20T07:22:23.408Z,90.79
2022-11-20T07:23:26.809Z,90.78
2022-11-20T07:24:30.271Z,90.85
2022-11-20T07:25:34.057Z,90.91
2022-11-20T07:26:39.790Z,90.78
2022-11-20T07:27:43.245Z,90.86
2022-11-20T07:28:46.816Z,90.62
2022-11-20T07:29:50.073Z,90.77
2022-11-20T07:31:02.671Z,90.68
2022-11-20T07:32:08.904Z,90.49
2022-11-20T07:33:12.203Z,90.24
2022-11-20T07:34:15.691Z,90.36
2022-11-20T07:35:19.056Z,90.06
2022-11-20T07:36:24.986Z,90.20
2022-11-20T07:37:45.015Z,90.27
2022-11-20T07:38:48.161Z,89.89
2022-11-20T07:40:03.217Z,90.07
2022-11-20T07:41:06.866Z,89.94
2022-11-20T07:42:10.681Z,90.00
2022-11-20T07:43:14.225Z,89.98
2022-11-20T07:44:19.131Z,89.97
2022-11-20T07:45:23.911Z,90.05
2022-11-20T07:46:27.383Z,89.91
2022-11-20T07:47:39.302Z,90.18
2022-11-20T07:48:45.973Z,90.12
2022-11-20T07:49:49.250Z,90.00
2022-11-20T07:50:56.460Z,89.91
2022-11-20T07:52:04.341Z,89.97
2022-11-20T07:53:09.566Z,90.00
2022-11-20T07:54:15.121Z,89.95
2022-11-20T07:55:18.571Z,90.06
2022-11-20T07:56:22.031Z,89.78
2022-11-20T07:57:28.300Z,89.90
2022-11-20T07:58:35.679Z,89.75
2022-11-20T07:59:40.156Z,89.88
2022-11-20T08:00:46.126Z,89.81
2022-11-20T08:01:52.588Z,89.48
2022-11-20T08:02:55.906Z,89.44
2022-11-20T08:03:59.318Z,89.60
2022-11-20T08:05:02.606Z,89.39
2022-11-20T08:06:06.729Z,89.32
2022-11-20T08:07:09.991Z,89.38
2022-11-20T08:08:13.122Z,89.41
2022-11-20T08:09:16.652Z,89.54
2022-11-20T08:10:19.879Z,89.31
2022-11-20T08:11:41.852Z,89.46
2022-11-20T08:13:07.081Z,89.49
2022-11-20T08:14:13.142Z,88.98
2022-11-20T08:15:16.432Z,88.98
2022-11-20T08:16:23.723Z,89.23
2022-11-20T08:17:27.049Z,88.77
2022-11-20T08:18:32.422Z,88.86
2022-11-20T08:19:38.826Z,88.71
2022-11-20T08:20:41.947Z,88.95
2022-11-20T08:21:45.925Z,88.75
2022-11-20T08:22:49.758Z,88.79
2022-11-20T08:23:53.270Z,88.84
2022-11-20T08:25:01.794Z,88.85
2022-11-20T08:26:05.321Z,88.55
2022-11-20T08:27:08.869Z,88.37
2022-11-20T08:28:20.245Z,88.48
2022-11-20T08:29:25.362Z,88.58
2022-11-20T08:30:31.117Z,88.08
2022-11-20T08:31:34.399Z,88.27
2022-11-20T08:33:09.350Z,87.87
2022-11-20T08:34:17.596Z,87.78
2022-11-20T08:35:23.137Z,87.92
2022-11-20T08:36:39.385Z,87.78
2022-11-20T08:37:42.676Z,87.54
2022-11-20T08:38:54.724Z,87.68
2022-11-20T08:39:58.201Z,87.80
2022-11-20T08:41:21.047Z,87.38
2022-11-20T08:42:26.630Z,87.11
2022-11-20T08:43:29.899Z,87.34
2022-11-20T08:44:33.091Z,87.46
2022-11-20T08:45:36.343Z,87.19
2022-11-20T08:46:45.096Z,87.55
2022-11-20T08:47:48.430Z,87.51
2022-11-20T08:48:51.787Z,87.59
2022-11-20T08:49:56.610Z,87.68
2022-11-20T08:51:00.630Z,87.64
2022-11-20T08:52:04.026Z,87.08
2022-11-20T08:53:07.960Z,87.22
2022-11-20T08:54:11.521Z,86.94
2022-11-20T08:55:16.912Z,86.90
2022-11-20T08:56:20.166Z,86.93
2022-11-20T08:57:26.057Z,86.80
2022-11-20T08:58:31.106Z,87.01
2022-11-20T09:00:04.591Z,86.92
2022-11-20T09:00:57.814Z,86.91
2022-11-20T09:02:01.036Z,86.73
2022-11-20T09:03:04.269Z,86.91
2022-11-20T09:04:07.981Z,87.00
2022-11-20T09:05:11.277Z,86.77
2022-11-20T09:06:15.231Z,86.74
2022-11-20T09:07:18.623Z,86.85
2022-11-20T09:08:21.960Z,86.71
2022-11-20T09:09:27.676Z,86.79
2022-11-20T09:10:31.108Z,86.94
2022-11-20T09:11:37.381Z,86.73
2022-11-20T09:12:40.616Z,86.70
2022-11-20T09:13:43.747Z,86.56
2022-11-20T09:14:54.751Z,86.68
2022-11-20T09:15:59.506Z,86.73
2022-11-20T09:17:02.953Z,86.40
2022-11-20T09:18:06.285Z,86.17
2022-11-20T09:20:32.868Z,86.57
2022-11-20T09:21:39.038Z,86.51
2022-11-20T09:22:43.869Z,86.52
2022-11-20T09:23:47.926Z,86.56
2022-11-20T09:24:51.260Z,86.66
2022-11-20T09:25:56.931Z,86.55
2022-11-20T09:27:02.421Z,86.63
2022-11-20T09:28:06.332Z,86.74
2022-11-20T09:29:09.506Z,86.27
2022-11-20T09:30:13.825Z,86.22
2022-11-20T09:31:21.471Z,86.22
2022-11-20T09:32:24.961Z,86.16
2022-11-20T09:33:28.571Z,86.31
2022-11-20T09:34:31.929Z,86.27
2022-11-20T09:35:35.515Z,86.04
2022-11-20T09:36:41.503Z,85.92
2022-11-20T09:37:45.081Z,85.77
2022-11-20T09:38:48.972Z,85.65
2022-11-20T09:39:52.213Z,85.83
2022-11-20T09:40:59.686Z,85.64
2022-11-20T09:42:02.844Z,85.70
2022-11-20T09:43:12.451Z,85.82
2022-11-20T09:44:34.408Z,85.60
2022-11-20T09:45:54.723Z,85.59
2022-11-20T09:47:14.586Z,85.46
2022-11-20T09:48:17.873Z,85.46
2022-11-20T09:49:38.387Z,85.55
2022-11-20T09:50:55.780Z,85.43
2022-11-20T09:52:08.295Z,85.22
2022-11-20T09:53:23.024Z,85.42
2022-11-20T09:54:40.561Z,85.20
2022-11-20T09:55:43.866Z,85.16
2022-11-20T09:56:55.632Z,84.98
2022-11-20T09:58:00.226Z,85.05
2022-11-20T09:59:06.168Z,84.93
2022-11-20T10:00:15.686Z,84.35
2022-11-20T10:01:19.028Z,84.54
2022-11-20T10:02:29.208Z,84.60
2022-11-20T10:03:41.469Z,84.55
2022-11-20T10:04:50.016Z,84.86
2022-11-20T10:05:54.497Z,84.58
2022-11-20T10:07:30.144Z,84.84
2022-11-20T10:08:23.532Z,84.71
2022-11-20T10:09:35.606Z,84.74
2022-11-20T10:10:47.314Z,84.71
2022-11-20T10:12:04.755Z,84.95
2022-11-20T10:13:22.756Z,85.13
2022-11-20T10:14:41.028Z,85.31
2022-11-20T10:16:07.212Z,85.42
2022-11-20T10:17:25.999Z,85.80
2022-11-20T10:18:35.161Z,85.49
2022-11-20T10:19:47.635Z,85.68
2022-11-20T10:21:11.977Z,86.23
2022-11-20T10:22:15.098Z,86.20
2022-11-20T10:23:24.260Z,86.22
2022-11-20T10:24:43.256Z,86.32
2022-11-20T10:26:02.200Z,86.30
2022-11-20T10:27:20.887Z,86.55
2022-11-20T10:28:52.788Z,86.39
2022-11-20T10:30:08.523Z,86.51
2022-11-20T10:31:16.108Z,86.59
2022-11-20T10:32:26.350Z,86.50
2022-11-20T10:33:50.051Z,86.51
2022-11-20T10:35:26.853Z,86.55
2022-11-20T10:36:39.287Z,86.58
2022-11-20T10:37:45.577Z,86.78
2022-11-20T10:38:51.590Z,86.60
2022-11-20T10:40:13.566Z,86.69
2022-11-20T10:41:25.594Z,86.53
2022-11-20T10:42:46.346Z,86.75
2022-11-20T10:43:53.275Z,86.59
2022-11-20T10:45:06.329Z,86.86
2022-11-20T10:46:13.975Z,86.79
2022-11-20T10:47:18.422Z,86.81
2022-11-20T10:48:26.495Z,86.83
2022-11-20T10:49:31.987Z,86.87
2022-11-20T10:50:37.535Z,86.68
2022-11-20T10:52:02.498Z,86.82
2022-11-20T10:53:17.921Z,86.64
2022-11-20T10:54:44.891Z,86.67
2022-11-20T10:55:53.202Z,86.48
2022-11-20T10:57:01.646Z,86.52
2022-11-20T10:58:04.801Z,86.47
2022-11-20T10:59:12.283Z,86.32
2022-11-20T11:00:18.263Z,86.23
2022-11-20T11:01:25.143Z,86.06
2022-11-20T11:02:40.407Z,86.04
2022-11-20T11:03:46.323Z,85.89
2022-11-20T11:04:53.643Z,85.87
2022-11-20T11:06:09.535Z,85.71
2022-11-20T11:07:22.115Z,85.80
2022-11-20T11:08:29.322Z,85.61
2022-11-20T11:09:35.477Z,85.56
2022-11-20T11:10:58.908Z,85.61
2022-11-20T11:12:07.018Z,85.54
2022-11-20T11:13:27.223Z,85.77
2022-11-20T11:14:30.614Z,85.75
2022-11-20T11:15:41.072Z,85.57
2022-11-20T11:16:52.083Z,85.85
2022-11-20T11:17:55.669Z,85.68
2022-11-20T11:19:15.742Z,85.40
2022-11-20T11:20:24.119Z,85.40
2022-11-20T11:21:27.973Z,85.44
2022-11-20T11:22:32.808Z,85.39
2022-11-20T11:23:43.042Z,85.41
2022-11-20T11:24:55.123Z,85.24
2022-11-20T11:25:59.870Z,85.34
2022-11-20T11:27:12.379Z,85.26
2022-11-20T11:28:20.027Z,85.10
2022-11-20T11:29:23.649Z,85.17
2022-11-20T11:30:32.227Z,85.26
2022-11-20T11:31:36.214Z,85.16
2022-11-20T11:32:39.407Z,85.11
2022-11-20T11:33:42.917Z,85.36
2022-11-20T11:34:46.412Z,85.19
2022-11-20T11:35:53.827Z,85.26
2022-11-20T11:36:58.646Z,85.08
2022-11-20T11:38:06.426Z,85.16
2022-11-20T11:39:15.347Z,85.02
2022-11-20T11:40:24.610Z,85.10
2022-11-20T11:41:32.812Z,85.02
2022-11-20T11:42:35.936Z,85.20
2022-11-20T11:44:09.940Z,85.31
2022-11-20T11:45:18.489Z,85.40
2022-11-20T11:46:21.705Z,85.55
2022-11-20T11:47:26.718Z,85.54
2022-11-20T11:48:29.926Z,85.57
2022-11-20T11:49:33.254Z,85.54
2022-11-20T11:50:36.742Z,85.21
2022-11-20T11:51:55.228Z,85.53
2022-11-20T11:53:14.380Z,85.41
2022-11-20T11:54:43.804Z,85.66
2022-11-20T11:56:09.548Z,85.44
2022-11-20T11:57:22.001Z,85.44
2022-11-20T11:58:45.734Z,85.68
2022-11-20T12:00:10.126Z,85.32
2022-11-20T12:01:19.505Z,85.50
2022-11-20T12:02:42.962Z,85.49
2022-11-20T12:03:53.935Z,85.59
2022-11-20T12:05:04.501Z,85.57
2022-11-20T12:06:11.570Z,85.39
2022-11-20T12:07:45.331Z,85.35
2022-11-20T12:08:59.040Z,85.20
2022-11-20T12:10:04.364Z,85.24
2022-11-20T12:11:13.867Z,85.28
2022-11-20T12:12:20.064Z,85.29
2022-11-20T12:13:23.575Z,84.93
2022-11-20T12:14:28.030Z,84.69
2022-11-20T12:15:34.245Z,84.79
2022-11-20T12:16:39.085Z,84.69
2022-11-20T12:17:42.323Z,84.65
2022-11-20T12:18:47.596Z,84.32
2022-11-20T12:19:53.713Z,84.71
2022-11-20T12:21:10.071Z,84.72
2022-11-20T12:22:31.881Z,84.72
2022-11-20T12:23:41.306Z,84.73
2022-11-20T12:25:03.398Z,84.67
2022-11-20T12:26:13.279Z,84.68
2022-11-20T12:27:16.501Z,84.70
2022-11-20T12:28:22.100Z,84.66
2022-11-20T12:29:44.124Z,84.69
2022-11-20T12:31:04.343Z,84.84
2022-11-20T12:32:16.811Z,84.76
2022-11-20T12:33:52.241Z,84.75
2022-11-20T12:35:11.572Z,84.72
2022-11-20T12:36:23.519Z,84.55
2022-11-20T12:37:47.989Z,84.52
2022-11-20T12:39:06.512Z,84.61
2022-11-20T12:40:30.180Z,84.71
2022-11-20T12:41:52.431Z,84.54
2022-11-20T12:43:34.979Z,84.69
2022-11-20T12:45:12.297Z,84.87
2022-11-20T12:46:24.742Z,85.01
2022-11-20T12:47:46.704Z,84.74
2022-11-20T12:48:58.970Z,84.74
2022-11-20T12:50:17.539Z,84.69
2022-11-20T12:51:23.711Z,84.48
2022-11-20T12:52:42.194Z,84.82
2022-11-20T12:53:53.560Z,84.84
2022-11-20T12:55:26.482Z,84.99
2022-11-20T12:56:51.234Z,85.10
2022-11-20T12:58:00.666Z,85.10
2022-11-20T12:59:06.257Z,85.06
2022-11-20T13:00:09.816Z,84.97
2022-11-20T13:01:44.015Z,85.00
2022-11-20T13:03:26.416Z,85.21
2022-11-20T13:04:35.365Z,85.12
2022-11-20T13:05:41.724Z,85.08
2022-11-20T13:06:45.384Z,85.23
2022-11-20T13:07:49.846Z,85.25
2022-11-20T13:08:57.908Z,85.00
2022-11-20T13:10:01.878Z,85.15
2022-11-20T13:11:11.277Z,85.08
2022-11-20T13:12:33.100Z,85.15
2022-11-20T13:13:36.610Z,84.91
2022-11-20T13:14:54.887Z,84.94
2022-11-20T13:15:58.101Z,84.82
2022-11-20T13:17:40.144Z,84.88
2022-11-20T13:18:46.425Z,84.85
2022-11-20T13:19:56.515Z,84.97
2022-11-20T13:20:59.967Z,84.70
2022-11-20T13:22:03.272Z,84.63
2022-11-20T13:23:06.443Z,84.67
2022-11-20T13:24:31.317Z,84.78
2022-11-20T13:25:41.075Z,84.88
2022-11-20T13:26:44.210Z,84.81
2022-11-20T13:27:50.470Z,84.79
2022-11-20T13:29:32.052Z,84.90
2022-11-20T13:30:37.183Z,84.98
2022-11-20T13:31:44.047Z,85.03
2022-11-20T13:32:50.174Z,85.03
2022-11-20T13:33:56.206Z,84.94
2022-11-20T13:35:04.476Z,85.09
2022-11-20T13:36:24.639Z,85.25
2022-11-20T13:37:29.783Z,85.23
2022-11-20T13:38:47.474Z,85.19
2022-11-20T13:39:50.638Z,85.23
2022-11-20T13:40:55.575Z,85.33
2022-11-20T13:42:00.404Z,85.18
2022-11-20T13:43:03.610Z,85.23
2022-11-20T13:44:36.781Z,85.21
2022-11-20T13:45:39.920Z,84.96
2022-11-20T13:46:45.757Z,85.19
2022-11-20T13:47:51.819Z,85.18
2022-11-20T13:48:56.595Z,85.24
2022-11-20T13:50:03.401Z,85.09
2022-11-20T13:51:15.414Z,85.34
2022-11-20T13:52:36.975Z,85.23
2022-11-20T13:53:58.300Z,85.21
2022-11-20T13:55:21.475Z,85.25
2022-11-20T13:56:39.496Z,85.18
2022-11-20T13:57:42.657Z,85.08
2022-11-20T13:59:21.352Z,85.02
2022-11-20T14:00:26.575Z,84.89
2022-11-20T14:01:34.223Z,85.01
2022-11-20T14:02:38.159Z,84.98
2022-11-20T14:04:05.236Z,85.05
2022-11-20T14:05:05.469Z,85.12
2022-11-20T14:06:24.130Z,84.95
2022-11-20T14:07:33.130Z,84.96
2022-11-20T14:08:41.496Z,84.93
2022-11-20T14:09:55.175Z,85.00
2022-11-20T14:11:05.890Z,85.04
2022-11-20T14:12:17.939Z,84.96
2022-11-20T14:13:21.594Z,84.91
2022-11-20T14:14:26.901Z,84.92
2022-11-20T14:15:31.518Z,85.04
2022-11-20T14:16:44.127Z,84.98
2022-11-20T14:18:13.433Z,85.00
2022-11-20T14:19:22.885Z,85.14
2022-11-20T14:20:28.167Z,84.93
2022-11-20T14:21:33.724Z,84.98
2022-11-20T14:22:36.808Z,84.98
2022-11-20T14:23:40.138Z,85.14
2022-11-20T14:25:07.285Z,85.15
2022-11-20T14:26:21.368Z,85.16
2022-11-20T14:27:24.579Z,85.01
2022-11-20T14:28:29.611Z,85.33
2022-11-20T14:29:39.759Z,85.25